createdAt,value
2017-11-17T00:00:24.616Z,69.89
2017-11-17T00:00:57.535Z,69.12
2017-11-17T00:01:30.588Z,69.69
2017-11-17T00:02:03.615Z,69.69
2017-11-17T00:02:36.561Z,69.69
2017-11-17T00:03:09.583Z,69.69
2017-11-17T00:03:42.733Z,69.69
2017-11-17T00:04:15.644Z,69.60
2017-11-17T00:04:48.703Z,69.69
2017-11-17T00:05:21.684Z,69.60
2017-11-17T00:05:54.635Z,69.69
2017-11-17T00:06:27.513Z,69.02
2017-11-17T00:07:00.675Z,69.69
2017-11-17T00:07:33.896Z,69.69
2017-11-17T00:08:06.839Z,69.31
2017-11-17T00:08:39.861Z,69.31
2017-11-17T00:09:12.768Z,69.60
2017-11-17T00:09:45.714Z,69.50
2017-11-17T00:10:18.960Z,69.69
2017-11-17T00:10:52.278Z,69.21
2017-11-17T00:11:25.441Z,69.21
2017-11-17T00:11:58.321Z,69.21
2017-11-17T00:12:31.528Z,69.31
2017-11-17T00:13:04.618Z,69.21
2017-11-17T00:13:37.621Z,69.21
2017-11-17T00:14:10.538Z,69.12
2017-11-17T00:14:43.585Z,69.50
2017-11-17T00:15:16.495Z,69.27
2017-11-17T00:15:49.700Z,69.21
2017-11-17T00:16:22.780Z,69.50
2017-11-17T00:16:55.695Z,69.31
2017-11-17T00:17:28.572Z,69.27
2017-11-17T00:18:01.680Z,69.31
2017-11-17T00:18:34.813Z,69.21
2017-11-17T00:19:07.856Z,69.21
2017-11-17T00:19:40.836Z,69.31
2017-11-17T00:20:13.843Z,69.40
2017-11-17T00:20:46.896Z,69.21
2017-11-17T00:21:20.152Z,69.27
2017-11-17T00:21:53.025Z,69.21
2017-11-17T00:22:26.074Z,69.40
2017-11-17T00:22:59.162Z,69.40
2017-11-17T00:23:32.301Z,69.40
2017-11-17T00:24:05.388Z,69.21
2017-11-17T00:24:38.601Z,69.50
2017-11-17T00:25:11.581Z,69.37
2017-11-17T00:25:44.628Z,69.18
2017-11-17T00:26:17.579Z,69.50
2017-11-17T00:26:50.524Z,69.31
2017-11-17T00:27:23.405Z,69.31
2017-11-17T00:27:56.456Z,69.31
2017-11-17T00:28:29.478Z,69.31
2017-11-17T00:29:02.629Z,69.02
2017-11-17T00:29:35.650Z,69.56
2017-11-17T00:30:09.065Z,69.21
2017-11-17T00:30:42.181Z,69.02
2017-11-17T00:31:15.425Z,69.31
2017-11-17T00:31:48.537Z,68.79
2017-11-17T00:32:21.485Z,68.98
2017-11-17T00:32:54.905Z,69.50
2017-11-17T00:33:28.013Z,69.46
2017-11-17T00:34:01.042Z,69.18
2017-11-17T00:34:34.154Z,68.92
2017-11-17T00:35:07.039Z,68.92
2017-11-17T00:35:39.990Z,68.89
2017-11-17T00:36:13.113Z,69.18
2017-11-17T00:36:46.261Z,69.12
2017-11-17T00:37:19.212Z,68.63
2017-11-17T00:37:52.363Z,69.02
2017-11-17T00:38:25.492Z,68.89
2017-11-17T00:38:58.740Z,69.60
2017-11-17T00:39:31.762Z,69.46
2017-11-17T00:40:04.821Z,69.12
2017-11-17T00:40:38.003Z,69.08
2017-11-17T00:41:11.361Z,68.83
2017-11-17T00:41:44.558Z,68.79
2017-11-17T00:42:17.515Z,69.02
2017-11-17T00:42:50.660Z,68.83
2017-11-17T00:43:23.711Z,68.89
2017-11-17T00:43:56.895Z,69.02
2017-11-17T00:44:30.144Z,69.18
2017-11-17T00:45:03.389Z,68.70
2017-11-17T00:45:36.645Z,69.08
2017-11-17T00:46:09.571Z,69.02
2017-11-17T00:46:42.719Z,68.89
2017-11-17T00:47:15.841Z,69.21
2017-11-17T00:47:48.755Z,68.98
2017-11-17T00:48:21.904Z,69.40
2017-11-17T00:48:54.812Z,69.18
2017-11-17T00:49:28.035Z,69.18
2017-11-17T00:50:01.189Z,69.18
2017-11-17T00:50:34.314Z,68.79
2017-11-17T00:51:07.364Z,68.79
2017-11-17T00:51:40.494Z,68.89
2017-11-17T00:52:13.743Z,69.18
2017-11-17T00:52:46.831Z,68.98
2017-11-17T00:53:19.778Z,68.79
2017-11-17T00:53:53.092Z,68.89
2017-11-17T00:54:26.341Z,69.18
2017-11-17T00:54:59.466Z,69.08
2017-11-17T00:55:32.376Z,69.08
2017-11-17T00:56:05.253Z,69.08
2017-11-17T00:56:38.604Z,69.08
2017-11-17T00:57:11.823Z,68.89
2017-11-17T00:57:44.832Z,69.18
2017-11-17T00:58:18.020Z,68.79
2017-11-17T00:58:51.160Z,68.98
2017-11-17T00:59:24.167Z,68.98
2017-11-17T00:59:57.211Z,68.98
2017-11-17T01:00:30.333Z,69.08
2017-11-17T01:01:03.539Z,68.98
2017-11-17T01:01:36.763Z,68.98
2017-11-17T01:02:09.773Z,69.08
2017-11-17T01:02:42.953Z,69.08
2017-11-17T01:03:16.319Z,69.37
2017-11-17T01:03:49.483Z,69.37
2017-11-17T01:04:22.630Z,69.18
2017-11-17T01:04:55.578Z,69.18
2017-11-17T01:05:28.589Z,69.18
2017-11-17T01:06:01.671Z,69.18
2017-11-17T01:06:34.679Z,69.18
2017-11-17T01:07:07.900Z,69.18
2017-11-17T01:07:41.058Z,69.18
2017-11-17T01:08:14.360Z,69.08
2017-11-17T01:08:47.370Z,69.08
2017-11-17T01:09:20.494Z,69.18
2017-11-17T01:09:53.538Z,69.08
2017-11-17T01:10:26.784Z,69.18
2017-11-17T01:10:59.892Z,69.18
2017-11-17T01:11:32.819Z,69.18
2017-11-17T01:12:05.963Z,69.18
2017-11-17T01:12:38.941Z,69.18
2017-11-17T01:13:11.894Z,69.08
2017-11-17T01:13:44.871Z,69.18
2017-11-17T01:14:18.019Z,69.08
2017-11-17T01:14:51.006Z,69.08
2017-11-17T01:15:23.952Z,69.37
2017-11-17T01:15:57.196Z,69.18
2017-11-17T01:16:30.243Z,69.08
2017-11-17T01:17:03.378Z,69.18
2017-11-17T01:17:36.327Z,68.98
2017-11-17T01:18:09.546Z,69.18
2017-11-17T01:18:42.593Z,69.37
2017-11-17T01:19:15.716Z,69.18
2017-11-17T01:19:49.064Z,69.18
2017-11-17T01:20:21.947Z,69.18
2017-11-17T01:20:55.101Z,69.18
2017-11-17T01:21:28.219Z,69.18
2017-11-17T01:22:01.263Z,69.18
2017-11-17T01:22:34.248Z,69.18
2017-11-17T01:23:07.354Z,69.18
2017-11-17T01:23:40.675Z,69.37
2017-11-17T01:24:13.839Z,69.18
2017-11-17T01:24:46.913Z,69.37
2017-11-17T01:25:19.921Z,69.27
2017-11-17T01:25:52.842Z,69.27
2017-11-17T01:26:26.195Z,69.27
2017-11-17T01:26:59.314Z,69.37
2017-11-17T01:27:32.462Z,69.27
2017-11-17T01:28:05.648Z,69.27
2017-11-17T01:28:38.961Z,69.37
2017-11-17T01:29:11.982Z,69.27
2017-11-17T01:29:45.331Z,69.08
2017-11-17T01:30:18.514Z,69.08
2017-11-17T01:30:51.524Z,69.27
2017-11-17T01:31:24.645Z,69.18
2017-11-17T01:31:57.696Z,69.18
2017-11-17T01:32:30.752Z,69.08
2017-11-17T01:33:03.967Z,68.89
2017-11-17T01:33:37.188Z,69.08
2017-11-17T01:34:10.258Z,68.98
2017-11-17T01:34:43.126Z,68.79
2017-11-17T01:35:16.239Z,68.60
2017-11-17T01:35:49.361Z,68.60
2017-11-17T01:36:22.277Z,68.60
2017-11-17T01:36:55.261Z,68.89
2017-11-17T01:37:28.270Z,68.79
2017-11-17T01:38:01.282Z,68.70
2017-11-17T01:38:34.437Z,68.60
2017-11-17T01:39:07.777Z,68.70
2017-11-17T01:39:40.893Z,68.98
2017-11-17T01:40:14.216Z,69.08
2017-11-17T01:40:47.230Z,68.98
2017-11-17T01:41:20.214Z,68.79
2017-11-17T01:41:53.271Z,68.79
2017-11-17T01:42:26.392Z,68.79
2017-11-17T01:42:59.402Z,68.79
2017-11-17T01:43:32.418Z,68.79
2017-11-17T01:44:05.528Z,69.08
2017-11-17T01:44:38.548Z,68.79
2017-11-17T01:45:11.658Z,68.79
2017-11-17T01:45:45.083Z,68.98
2017-11-17T01:46:18.236Z,69.08
2017-11-17T01:46:51.321Z,69.08
2017-11-17T01:47:24.376Z,69.08
2017-11-17T01:47:57.465Z,68.98
2017-11-17T01:48:30.577Z,69.18
2017-11-17T01:49:03.587Z,68.98
2017-11-17T01:49:36.600Z,68.98
2017-11-17T01:50:09.729Z,69.08
2017-11-17T01:50:42.879Z,68.98
2017-11-17T01:51:15.766Z,68.98
2017-11-17T01:51:48.821Z,68.98
2017-11-17T01:52:22.144Z,68.98
2017-11-17T01:52:55.496Z,68.98
2017-11-17T01:53:28.523Z,68.98
2017-11-17T01:54:01.572Z,68.79
2017-11-17T01:54:34.823Z,69.08
2017-11-17T01:55:07.979Z,68.98
2017-11-17T01:55:41.165Z,68.89
2017-11-17T01:56:14.415Z,68.98
2017-11-17T01:56:47.699Z,68.98
2017-11-17T01:57:20.850Z,68.98
2017-11-17T01:57:53.972Z,68.70
2017-11-17T01:58:27.282Z,68.89
2017-11-17T01:59:00.504Z,68.98
2017-11-17T01:59:33.857Z,68.98
2017-11-17T02:00:07.007Z,68.79
2017-11-17T02:00:40.176Z,69.18
2017-11-17T02:01:13.144Z,68.79
2017-11-17T02:01:46.300Z,68.89
2017-11-17T02:02:19.178Z,68.70
2017-11-17T02:02:52.190Z,68.70
2017-11-17T02:03:25.076Z,68.79
2017-11-17T02:03:58.328Z,68.70
2017-11-17T02:04:31.309Z,68.60
2017-11-17T02:05:04.427Z,68.70
2017-11-17T02:05:37.750Z,68.89
2017-11-17T02:06:10.998Z,68.79
2017-11-17T02:06:44.220Z,68.79
2017-11-17T02:07:17.432Z,68.89
2017-11-17T02:07:50.458Z,68.89
2017-11-17T02:08:23.364Z,68.89
2017-11-17T02:08:56.389Z,68.70
2017-11-17T02:09:29.338Z,68.60
2017-11-17T02:10:02.519Z,68.60
2017-11-17T02:10:35.672Z,68.60
2017-11-17T02:11:08.823Z,68.89
2017-11-17T02:11:41.733Z,68.60
2017-11-17T02:12:14.849Z,68.89
2017-11-17T02:12:48.000Z,68.70
2017-11-17T02:13:21.122Z,68.51
2017-11-17T02:13:54.177Z,68.70
2017-11-17T02:14:27.460Z,68.70
2017-11-17T02:15:00.517Z,68.89
2017-11-17T02:15:33.537Z,68.89
2017-11-17T02:16:06.846Z,68.79
2017-11-17T02:16:39.854Z,68.70
2017-11-17T02:17:13.003Z,68.89
2017-11-17T02:17:46.083Z,69.08
2017-11-17T02:18:19.308Z,69.08
2017-11-17T02:18:52.194Z,69.08
2017-11-17T02:19:25.337Z,69.18
2017-11-17T02:19:58.368Z,68.98
2017-11-17T02:20:31.316Z,68.79
2017-11-17T02:21:04.506Z,69.08
2017-11-17T02:21:37.551Z,69.08
2017-11-17T02:22:10.870Z,68.98
2017-11-17T02:22:43.928Z,69.08
2017-11-17T02:23:16.754Z,68.98
2017-11-17T02:23:49.762Z,69.08
2017-11-17T02:24:22.990Z,69.08
2017-11-17T02:24:56.006Z,69.08
2017-11-17T02:25:29.231Z,68.98
2017-11-17T02:26:02.284Z,69.08
2017-11-17T02:26:35.317Z,69.08
2017-11-17T02:27:08.356Z,69.08
2017-11-17T02:27:41.348Z,68.79
2017-11-17T02:28:14.257Z,68.79
2017-11-17T02:28:47.482Z,69.08
2017-11-17T02:29:20.794Z,68.89
2017-11-17T02:29:53.818Z,68.79
2017-11-17T02:30:26.933Z,68.98
2017-11-17T02:30:59.958Z,68.79
2017-11-17T02:31:33.115Z,68.79
2017-11-17T02:32:06.145Z,68.70
2017-11-17T02:32:39.340Z,68.89
2017-11-17T02:33:12.654Z,69.08
2017-11-17T02:33:45.611Z,68.21
2017-11-17T02:34:18.739Z,68.21
2017-11-17T02:34:51.690Z,68.60
2017-11-17T02:35:24.619Z,68.31
2017-11-17T02:35:57.829Z,68.31
2017-11-17T02:36:30.858Z,68.41
2017-11-17T02:37:04.214Z,68.41
2017-11-17T02:37:37.138Z,68.31
2017-11-17T02:38:10.323Z,68.21
2017-11-17T02:38:43.412Z,68.41
2017-11-17T02:39:16.421Z,68.21
2017-11-17T02:39:49.458Z,68.51
2017-11-17T02:40:22.802Z,68.41
2017-11-17T02:40:55.929Z,68.51
2017-11-17T02:41:28.883Z,68.51
2017-11-17T02:42:02.012Z,68.51
2017-11-17T02:42:35.164Z,68.51
2017-11-17T02:43:08.152Z,68.51
2017-11-17T02:43:41.233Z,68.41
2017-11-17T02:44:14.218Z,68.51
2017-11-17T02:44:47.466Z,68.41
2017-11-17T02:45:20.400Z,68.41
2017-11-17T02:45:53.655Z,68.51
2017-11-17T02:46:26.641Z,68.12
2017-11-17T02:46:59.662Z,68.12
2017-11-17T02:47:32.882Z,68.31
2017-11-17T02:48:05.894Z,68.21
2017-11-17T02:48:38.879Z,68.21
2017-11-17T02:49:12.156Z,68.51
2017-11-17T02:49:45.185Z,68.41
2017-11-17T02:50:18.435Z,68.79
2017-11-17T02:50:51.521Z,68.41
2017-11-17T02:51:24.635Z,68.60
2017-11-17T02:51:57.661Z,68.70
2017-11-17T02:52:30.672Z,68.60
2017-11-17T02:53:03.898Z,68.51
2017-11-17T02:53:36.914Z,68.60
2017-11-17T02:54:10.027Z,68.60
2017-11-17T02:54:43.079Z,68.60
2017-11-17T02:55:15.905Z,68.60
2017-11-17T02:55:48.861Z,68.60
2017-11-17T02:56:21.981Z,68.79
2017-11-17T02:56:55.100Z,68.60
2017-11-17T02:57:28.330Z,68.60
2017-11-17T02:58:01.379Z,68.41
2017-11-17T02:58:34.504Z,68.47
2017-11-17T02:59:07.627Z,68.79
2017-11-17T02:59:40.871Z,68.51
2017-11-17T03:00:14.023Z,68.51
2017-11-17T03:00:47.208Z,68.79
2017-11-17T03:01:20.266Z,68.89
2017-11-17T03:01:53.491Z,68.79
2017-11-17T03:02:26.504Z,68.89
2017-11-17T03:02:59.430Z,68.89
2017-11-17T03:03:32.645Z,68.89
2017-11-17T03:04:05.630Z,68.70
2017-11-17T03:04:38.788Z,68.70
2017-11-17T03:05:11.907Z,68.79
2017-11-17T03:05:45.065Z,68.79
2017-11-17T03:06:18.190Z,68.79
2017-11-17T03:06:51.301Z,68.89
2017-11-17T03:07:24.427Z,68.79
2017-11-17T03:07:57.540Z,68.89
2017-11-17T03:08:30.570Z,68.60
2017-11-17T03:09:03.688Z,68.89
2017-11-17T03:09:36.708Z,68.79
2017-11-17T03:10:09.923Z,68.79
2017-11-17T03:10:42.983Z,68.89
2017-11-17T03:11:16.030Z,68.89
2017-11-17T03:11:49.220Z,68.89
2017-11-17T03:12:22.470Z,68.60
2017-11-17T03:12:55.358Z,68.79
2017-11-17T03:13:28.468Z,68.51
2017-11-17T03:14:01.452Z,68.31
2017-11-17T03:14:34.671Z,68.41
2017-11-17T03:15:07.896Z,68.51
2017-11-17T03:15:41.014Z,68.51
2017-11-17T03:16:13.924Z,68.31
2017-11-17T03:16:46.837Z,68.41
2017-11-17T03:17:19.760Z,68.51
2017-11-17T03:17:53.013Z,68.51
2017-11-17T03:18:26.199Z,68.79
2017-11-17T03:18:59.114Z,68.51
2017-11-17T03:19:32.293Z,68.70
2017-11-17T03:20:05.650Z,68.41
2017-11-17T03:20:38.576Z,68.60
2017-11-17T03:21:11.716Z,68.60
2017-11-17T03:21:44.901Z,68.31
2017-11-17T03:22:17.953Z,68.41
2017-11-17T03:22:51.237Z,68.31
2017-11-17T03:23:24.590Z,68.31
2017-11-17T03:23:57.816Z,68.21
2017-11-17T03:24:30.876Z,68.31
2017-11-17T03:25:03.863Z,68.21
2017-11-17T03:25:36.918Z,68.21
2017-11-17T03:26:10.005Z,68.08
2017-11-17T03:26:42.983Z,68.08
2017-11-17T03:27:16.008Z,67.99
2017-11-17T03:27:48.920Z,68.08
2017-11-17T03:28:22.052Z,68.12
2017-11-17T03:28:55.103Z,67.93
2017-11-17T03:29:28.087Z,67.99
2017-11-17T03:30:01.046Z,68.37
2017-11-17T03:30:34.269Z,68.51
2017-11-17T03:31:07.422Z,68.02
2017-11-17T03:31:40.544Z,68.37
2017-11-17T03:32:13.728Z,67.99
2017-11-17T03:32:46.849Z,68.51
2017-11-17T03:33:19.806Z,68.47
2017-11-17T03:33:52.800Z,68.47
2017-11-17T03:34:25.920Z,67.99
2017-11-17T03:34:59.038Z,68.47
2017-11-17T03:35:32.051Z,68.51
2017-11-17T03:36:05.081Z,68.51
2017-11-17T03:36:38.300Z,67.99
2017-11-17T03:37:11.286Z,68.21
2017-11-17T03:37:44.271Z,68.18
2017-11-17T03:38:17.494Z,68.57
2017-11-17T03:38:50.650Z,68.08
2017-11-17T03:39:23.875Z,68.08
2017-11-17T03:39:57.190Z,67.90
2017-11-17T03:40:30.332Z,68.02
2017-11-17T03:41:03.546Z,67.99
2017-11-17T03:41:36.776Z,68.18
2017-11-17T03:42:10.127Z,68.12
2017-11-17T03:42:43.312Z,68.37
2017-11-17T03:43:16.551Z,68.08
2017-11-17T03:43:49.579Z,67.99
2017-11-17T03:44:22.632Z,67.80
2017-11-17T03:44:55.855Z,68.37
2017-11-17T03:45:28.870Z,67.90
2017-11-17T03:46:01.855Z,67.90
2017-11-17T03:46:34.770Z,67.90
2017-11-17T03:47:07.897Z,67.90
2017-11-17T03:47:40.925Z,67.90
2017-11-17T03:48:13.919Z,67.90
2017-11-17T03:48:46.976Z,67.99
2017-11-17T03:49:20.261Z,67.99
2017-11-17T03:49:55.109Z,67.70
2017-11-17T03:50:28.133Z,67.99
2017-11-17T03:51:01.287Z,67.99
2017-11-17T03:51:34.416Z,67.80
2017-11-17T03:52:07.471Z,67.70
2017-11-17T03:52:40.792Z,67.70
2017-11-17T03:53:13.809Z,67.61
2017-11-17T03:53:46.860Z,67.70
2017-11-17T03:54:19.913Z,67.61
2017-11-17T03:54:53.038Z,67.80
2017-11-17T03:55:26.096Z,67.61
2017-11-17T03:55:59.118Z,67.80
2017-11-17T03:56:32.276Z,67.80
2017-11-17T03:57:05.465Z,67.51
2017-11-17T03:57:38.819Z,67.61
2017-11-17T03:58:12.103Z,67.51
2017-11-17T03:58:45.053Z,67.70
2017-11-17T03:59:18.008Z,67.90
2017-11-17T03:59:51.119Z,67.61
2017-11-17T04:00:24.048Z,67.70
2017-11-17T04:00:57.005Z,67.70
2017-11-17T04:01:29.929Z,67.70
2017-11-17T04:02:03.081Z,67.70
2017-11-17T04:02:36.167Z,67.70
2017-11-17T04:03:09.227Z,67.90
2017-11-17T04:03:42.112Z,67.99
2017-11-17T04:04:15.226Z,67.80
2017-11-17T04:04:48.490Z,67.90
2017-11-17T04:05:21.691Z,67.90
2017-11-17T04:05:54.675Z,67.99
2017-11-17T04:06:27.630Z,67.90
2017-11-17T04:07:00.815Z,67.99
2017-11-17T04:07:33.926Z,67.90
2017-11-17T04:08:07.157Z,67.90
2017-11-17T04:08:40.212Z,67.80
2017-11-17T04:09:13.240Z,67.80
2017-11-17T04:09:46.452Z,67.80
2017-11-17T04:10:19.703Z,67.80
2017-11-17T04:10:53.058Z,67.80
2017-11-17T04:11:26.241Z,67.99
2017-11-17T04:11:59.294Z,67.80
2017-11-17T04:12:32.480Z,67.80
2017-11-17T04:13:05.747Z,67.80
2017-11-17T04:13:38.873Z,67.99
2017-11-17T04:14:11.925Z,67.90
2017-11-17T04:14:45.014Z,67.70
2017-11-17T04:15:18.090Z,67.80
2017-11-17T04:15:51.213Z,67.51
2017-11-17T04:16:24.231Z,67.51
2017-11-17T04:16:57.218Z,67.51
2017-11-17T04:17:30.231Z,67.70
2017-11-17T04:18:03.451Z,67.70
2017-11-17T04:18:36.616Z,67.61
2017-11-17T04:19:09.541Z,67.80
2017-11-17T04:19:42.691Z,67.61
2017-11-17T04:20:15.782Z,67.32
2017-11-17T04:20:48.860Z,67.32
2017-11-17T04:21:21.988Z,67.32
2017-11-17T04:21:55.147Z,67.41
2017-11-17T04:22:28.178Z,67.32
2017-11-17T04:23:01.134Z,67.22
2017-11-17T04:23:34.021Z,67.70
2017-11-17T04:24:07.279Z,67.32
2017-11-17T04:24:40.203Z,67.22
2017-11-17T04:25:13.156Z,67.61
2017-11-17T04:25:45.982Z,67.51
2017-11-17T04:26:19.163Z,67.61
2017-11-17T04:26:52.150Z,67.61
2017-11-17T04:27:25.162Z,67.51
2017-11-17T04:27:58.348Z,67.41
2017-11-17T04:28:31.358Z,67.41
2017-11-17T04:29:04.245Z,67.22
2017-11-17T04:29:37.301Z,67.32
2017-11-17T04:30:10.189Z,67.41
2017-11-17T04:30:43.740Z,67.32
2017-11-17T04:31:16.865Z,67.32
2017-11-17T04:31:49.951Z,67.22
2017-11-17T04:32:22.977Z,67.32
2017-11-17T04:32:56.025Z,67.41
2017-11-17T04:33:28.951Z,67.32
2017-11-17T04:34:01.974Z,67.32
2017-11-17T04:34:35.095Z,67.13
2017-11-17T04:35:08.348Z,67.13
2017-11-17T04:35:41.575Z,67.41
2017-11-17T04:36:14.731Z,67.22
2017-11-17T04:36:47.853Z,67.32
2017-11-17T04:37:21.128Z,67.32
2017-11-17T04:37:54.056Z,67.32
2017-11-17T04:38:27.166Z,67.32
2017-11-17T04:39:00.196Z,67.32
2017-11-17T04:39:33.314Z,67.32
2017-11-17T04:40:06.340Z,67.32
2017-11-17T04:40:39.495Z,67.22
2017-11-17T04:41:12.716Z,67.32
2017-11-17T04:41:45.773Z,66.84
2017-11-17T04:42:18.823Z,67.03
2017-11-17T04:42:51.835Z,67.03
2017-11-17T04:43:24.960Z,66.93
2017-11-17T04:43:58.172Z,67.03
2017-11-17T04:44:31.495Z,66.84
2017-11-17T04:45:04.853Z,66.93
2017-11-17T04:45:37.991Z,67.22
2017-11-17T04:46:11.301Z,66.93
2017-11-17T04:46:44.485Z,67.22
2017-11-17T04:47:17.637Z,66.84
2017-11-17T04:47:50.689Z,67.13
2017-11-17T04:48:23.802Z,67.22
2017-11-17T04:48:57.025Z,67.13
2017-11-17T04:49:29.941Z,67.41
2017-11-17T04:50:02.826Z,67.03
2017-11-17T04:50:35.782Z,67.13
2017-11-17T04:51:08.716Z,67.09
2017-11-17T04:51:41.960Z,66.90
2017-11-17T04:52:15.247Z,66.90
2017-11-17T04:52:48.106Z,66.84
2017-11-17T04:53:21.018Z,66.93
2017-11-17T04:53:54.172Z,67.03
2017-11-17T04:54:27.095Z,66.84
2017-11-17T04:55:00.012Z,67.13
2017-11-17T04:55:32.935Z,66.84
2017-11-17T04:56:06.089Z,67.13
2017-11-17T04:56:39.175Z,66.84
2017-11-17T04:57:12.429Z,67.03
2017-11-17T04:57:45.512Z,67.03
2017-11-17T04:58:18.570Z,66.93
2017-11-17T04:58:51.785Z,66.93
2017-11-17T04:59:25.037Z,66.93
2017-11-17T04:59:58.265Z,67.03
2017-11-17T05:00:31.175Z,67.03
2017-11-17T05:01:04.401Z,66.64
2017-11-17T05:01:37.451Z,66.42
2017-11-17T05:02:10.532Z,66.42
2017-11-17T05:02:43.490Z,66.61
2017-11-17T05:03:16.612Z,66.46
2017-11-17T05:03:49.826Z,66.52
2017-11-17T05:04:22.676Z,66.55
2017-11-17T05:04:55.832Z,66.42
2017-11-17T05:05:28.755Z,66.36
2017-11-17T05:06:01.907Z,66.52
2017-11-17T05:06:35.094Z,66.55
2017-11-17T05:07:07.950Z,66.64
2017-11-17T05:07:40.905Z,66.42
2017-11-17T05:08:14.162Z,66.33
2017-11-17T05:08:46.995Z,66.42
2017-11-17T05:09:20.035Z,66.36
2017-11-17T05:09:53.161Z,66.33
2017-11-17T05:10:26.214Z,66.71
2017-11-17T05:10:59.244Z,66.71
2017-11-17T05:11:32.361Z,66.90
2017-11-17T05:12:05.480Z,66.90
2017-11-17T05:12:38.598Z,66.71
2017-11-17T05:13:11.683Z,66.42
2017-11-17T05:13:44.835Z,66.33
2017-11-17T05:14:17.859Z,66.42
2017-11-17T05:14:51.239Z,66.33
2017-11-17T05:15:24.321Z,66.71
2017-11-17T05:15:57.291Z,66.61
2017-11-17T05:16:30.467Z,66.61
2017-11-17T05:17:03.721Z,66.71
2017-11-17T05:17:36.948Z,66.71
2017-11-17T05:18:09.966Z,66.13
2017-11-17T05:18:42.890Z,66.03
2017-11-17T05:19:15.915Z,66.03
2017-11-17T05:19:48.999Z,66.61
2017-11-17T05:20:21.953Z,65.94
2017-11-17T05:20:55.128Z,65.94
2017-11-17T05:21:28.236Z,65.94
2017-11-17T05:22:01.060Z,66.23
2017-11-17T05:22:34.010Z,66.23
2017-11-17T05:23:07.142Z,66.52
2017-11-17T05:23:40.284Z,66.03
2017-11-17T05:24:13.310Z,66.23
2017-11-17T05:24:46.265Z,66.33
2017-11-17T05:25:19.146Z,66.52
2017-11-17T05:25:52.429Z,66.23
2017-11-17T05:26:25.352Z,66.42
2017-11-17T05:26:58.503Z,66.13
2017-11-17T05:27:31.327Z,66.03
2017-11-17T05:28:04.417Z,66.23
2017-11-17T05:28:37.672Z,66.33
2017-11-17T05:29:10.628Z,66.33
2017-11-17T05:29:43.810Z,66.13
2017-11-17T05:30:16.864Z,66.33
2017-11-17T05:30:49.786Z,66.23
2017-11-17T05:31:23.124Z,66.23
2017-11-17T05:31:56.362Z,66.13
2017-11-17T05:32:29.564Z,66.13
2017-11-17T05:33:02.792Z,65.84
2017-11-17T05:33:36.046Z,65.94
2017-11-17T05:34:09.227Z,66.23
2017-11-17T05:34:42.339Z,65.94
2017-11-17T05:35:15.181Z,65.75
2017-11-17T05:35:48.177Z,65.94
2017-11-17T05:36:21.129Z,66.33
2017-11-17T05:36:54.181Z,66.13
2017-11-17T05:37:27.311Z,65.75
2017-11-17T05:38:00.568Z,65.94
2017-11-17T05:38:33.595Z,65.94
2017-11-17T05:39:06.607Z,66.23
2017-11-17T05:39:39.935Z,66.13
2017-11-17T05:40:12.748Z,66.03
2017-11-17T05:40:45.932Z,65.84
2017-11-17T05:41:18.947Z,66.33
2017-11-17T05:41:52.056Z,66.13
2017-11-17T05:42:25.075Z,66.23
2017-11-17T05:42:58.201Z,66.61
2017-11-17T05:43:31.214Z,66.42
2017-11-17T05:44:04.106Z,66.61
2017-11-17T05:44:37.353Z,66.71
2017-11-17T05:45:10.338Z,66.52
2017-11-17T05:45:43.691Z,66.42
2017-11-17T05:46:16.916Z,66.13
2017-11-17T05:46:50.067Z,66.42
2017-11-17T05:47:23.183Z,66.42
2017-11-17T05:47:56.190Z,67.00
2017-11-17T05:48:29.376Z,66.90
2017-11-17T05:49:02.734Z,67.09
2017-11-17T05:49:35.962Z,66.90
2017-11-17T05:50:09.214Z,66.71
2017-11-17T05:50:42.241Z,66.80
2017-11-17T05:51:15.394Z,66.90
2017-11-17T05:51:48.316Z,66.90
2017-11-17T05:52:21.373Z,67.38
2017-11-17T05:52:54.279Z,67.09
2017-11-17T05:53:27.330Z,67.19
2017-11-17T05:54:00.213Z,67.19
2017-11-17T05:54:33.432Z,67.19
2017-11-17T05:55:06.311Z,67.00
2017-11-17T05:55:39.427Z,66.90
2017-11-17T05:56:12.310Z,67.00
2017-11-17T05:56:45.365Z,66.80
2017-11-17T05:57:18.689Z,66.90
2017-11-17T05:57:51.801Z,67.00
2017-11-17T05:58:24.950Z,66.90
2017-11-17T05:58:58.163Z,66.90
2017-11-17T05:59:31.039Z,66.90
2017-11-17T06:00:04.097Z,66.80
2017-11-17T06:00:37.082Z,66.90
2017-11-17T06:01:10.292Z,66.80
2017-11-17T06:01:43.312Z,67.09
2017-11-17T06:02:16.366Z,66.90
2017-11-17T06:02:49.454Z,66.80
2017-11-17T06:03:22.426Z,66.90
2017-11-17T06:03:55.546Z,67.00
2017-11-17T06:04:28.698Z,67.19
2017-11-17T06:05:01.679Z,67.19
2017-11-17T06:05:34.837Z,66.80
2017-11-17T06:06:08.072Z,67.38
2017-11-17T06:06:41.221Z,66.90
2017-11-17T06:07:14.310Z,67.09
2017-11-17T06:07:47.304Z,67.38
2017-11-17T06:08:20.195Z,67.41
2017-11-17T06:08:53.272Z,67.29
2017-11-17T06:09:26.393Z,67.09
2017-11-17T06:09:59.302Z,66.93
2017-11-17T06:10:32.392Z,67.29
2017-11-17T06:11:05.539Z,66.93
2017-11-17T06:11:38.561Z,66.90
2017-11-17T06:12:11.671Z,66.90
2017-11-17T06:12:44.795Z,66.90
2017-11-17T06:13:18.044Z,66.80
2017-11-17T06:13:51.128Z,66.74
2017-11-17T06:14:24.368Z,66.64
2017-11-17T06:14:57.350Z,66.61
2017-11-17T06:15:30.398Z,66.71
2017-11-17T06:16:03.382Z,66.90
2017-11-17T06:16:36.631Z,66.84
2017-11-17T06:17:09.849Z,66.84
2017-11-17T06:17:42.912Z,66.84
2017-11-17T06:18:16.037Z,67.03
2017-11-17T06:18:49.149Z,67.03
2017-11-17T06:19:22.136Z,67.03
2017-11-17T06:19:55.121Z,66.84
2017-11-17T06:20:27.996Z,66.93
2017-11-17T06:21:01.048Z,66.93
2017-11-17T06:21:34.071Z,67.03
2017-11-17T06:22:06.992Z,67.32
2017-11-17T06:22:40.112Z,67.19
2017-11-17T06:23:13.122Z,67.41
2017-11-17T06:23:46.050Z,67.41
2017-11-17T06:24:19.001Z,67.13
2017-11-17T06:24:52.226Z,67.41
2017-11-17T06:25:26.059Z,67.61
2017-11-17T06:25:59.047Z,67.22
2017-11-17T06:26:32.055Z,67.22
2017-11-17T06:27:05.147Z,67.32
2017-11-17T06:27:38.047Z,67.41
2017-11-17T06:28:11.128Z,67.61
2017-11-17T06:28:44.283Z,67.32
2017-11-17T06:29:17.561Z,67.61
2017-11-17T06:29:50.715Z,67.32
2017-11-17T06:30:23.697Z,67.61
2017-11-17T06:30:56.875Z,67.32
2017-11-17T06:31:29.899Z,67.61
2017-11-17T06:32:02.806Z,67.32
2017-11-17T06:32:35.792Z,67.22
2017-11-17T06:33:08.941Z,67.61
2017-11-17T06:33:41.931Z,67.32
2017-11-17T06:34:15.136Z,67.51
2017-11-17T06:34:48.155Z,67.32
2017-11-17T06:35:21.208Z,67.32
2017-11-17T06:35:54.328Z,67.41
2017-11-17T06:36:27.466Z,67.41
2017-11-17T06:37:00.691Z,67.41
2017-11-17T06:37:33.707Z,67.22
2017-11-17T06:38:06.830Z,67.41
2017-11-17T06:38:40.086Z,67.41
2017-11-17T06:39:13.309Z,67.13
2017-11-17T06:39:46.263Z,67.22
2017-11-17T06:40:19.142Z,67.13
2017-11-17T06:40:52.391Z,67.32
2017-11-17T06:41:25.417Z,67.41
2017-11-17T06:41:58.455Z,67.41
2017-11-17T06:42:31.475Z,67.32
2017-11-17T06:43:04.636Z,67.41
2017-11-17T06:43:37.856Z,67.32
2017-11-17T06:44:11.068Z,67.22
2017-11-17T06:44:44.090Z,67.41
2017-11-17T06:45:17.252Z,67.32
2017-11-17T06:45:50.462Z,67.32
2017-11-17T06:46:23.618Z,67.41
2017-11-17T06:46:56.645Z,67.51
2017-11-17T06:47:29.617Z,67.41
2017-11-17T06:48:02.637Z,67.32
2017-11-17T06:48:35.552Z,67.32
2017-11-17T06:49:08.636Z,67.32
2017-11-17T06:49:41.750Z,66.93
2017-11-17T06:50:14.926Z,67.32
2017-11-17T06:50:47.877Z,67.32
2017-11-17T06:51:20.756Z,67.32
2017-11-17T06:51:53.765Z,67.51
2017-11-17T06:52:26.648Z,67.22
2017-11-17T06:52:59.827Z,67.13
2017-11-17T06:53:32.945Z,67.32
2017-11-17T06:54:05.956Z,66.93
2017-11-17T06:54:38.880Z,66.84
2017-11-17T06:55:11.930Z,66.93
2017-11-17T06:55:45.050Z,66.93
2017-11-17T06:56:18.301Z,66.97
2017-11-17T06:56:51.324Z,67.32
2017-11-17T06:57:24.232Z,67.51
2017-11-17T06:57:57.155Z,66.84
2017-11-17T06:58:30.192Z,67.22
2017-11-17T06:59:03.415Z,66.84
2017-11-17T06:59:36.562Z,67.32
2017-11-17T07:00:09.689Z,66.84
2017-11-17T07:00:42.741Z,67.13
2017-11-17T07:01:15.628Z,67.13
2017-11-17T07:01:48.634Z,66.93
2017-11-17T07:02:21.563Z,67.32
2017-11-17T07:02:54.823Z,67.13
2017-11-17T07:03:27.643Z,66.84
2017-11-17T07:04:00.782Z,66.87
2017-11-17T07:04:34.010Z,66.84
2017-11-17T07:05:07.324Z,66.93
2017-11-17T07:05:40.351Z,67.35
2017-11-17T07:06:13.603Z,66.84